createdAt,value
2019-02-19T00:01:12.078Z,2.40
2019-02-19T00:03:39.643Z,2.50
2019-02-19T00:06:07.155Z,2.70
2019-02-19T00:08:34.686Z,2.50
2019-02-19T00:11:02.256Z,2.70
2019-02-19T00:13:29.764Z,2.60
2019-02-19T00:15:57.284Z,2.50
2019-02-19T00:18:24.892Z,2.50
2019-02-19T00:20:52.370Z,2.50
2019-02-19T00:23:19.935Z,2.40
2019-02-19T00:25:47.419Z,2.40
2019-02-19T00:28:14.919Z,2.40
2019-02-19T00:30:42.434Z,2.20
2019-02-19T00:33:10.031Z,2.30
2019-02-19T00:35:37.578Z,2.20
2019-02-19T00:38:06.328Z,2.20
2019-02-19T00:40:34.239Z,2.20
2019-02-19T00:43:01.782Z,2.30
2019-02-19T00:45:29.290Z,2.20
2019-02-19T00:47:56.809Z,2.30
2019-02-19T00:50:24.341Z,2.30
2019-02-19T00:52:51.841Z,2.30
2019-02-19T00:55:19.423Z,2.30
2019-02-19T00:57:46.969Z,2.50
2019-02-19T01:00:14.562Z,2.40
2019-02-19T01:02:42.098Z,2.40
2019-02-19T01:05:09.597Z,2.40
2019-02-19T01:07:37.139Z,2.40
2019-02-19T01:10:05.249Z,2.40
2019-02-19T01:12:32.803Z,2.40
2019-02-19T01:15:00.308Z,2.40
2019-02-19T01:17:27.805Z,2.40
2019-02-19T01:19:55.344Z,2.50
2019-02-19T01:22:22.859Z,2.50
2019-02-19T01:24:50.349Z,2.40
2019-02-19T01:27:17.897Z,2.40
2019-02-19T01:29:45.405Z,2.40
2019-02-19T01:32:12.911Z,2.40
2019-02-19T01:34:40.431Z,2.50
2019-02-19T01:37:07.961Z,2.40
2019-02-19T01:39:35.502Z,2.30
2019-02-19T01:42:03.031Z,2.30
2019-02-19T01:44:30.513Z,2.30
2019-02-19T01:46:58.029Z,2.40
2019-02-19T01:49:25.593Z,2.20
2019-02-19T01:51:53.135Z,2.20
2019-02-19T01:54:20.705Z,2.20
2019-02-19T01:56:48.189Z,2.60
2019-02-19T01:59:15.753Z,2.20
2019-02-19T02:01:43.274Z,2.20
2019-02-19T02:04:10.775Z,2.20
2019-02-19T02:06:38.282Z,2.40
2019-02-19T02:09:05.824Z,2.10
2019-02-19T02:11:33.327Z,2.10
2019-02-19T02:14:00.828Z,2.10
2019-02-19T02:16:28.401Z,2.00
2019-02-19T02:18:55.922Z,2.10
2019-02-19T02:21:23.413Z,2.30
2019-02-19T02:23:50.927Z,2.20
2019-02-19T02:26:18.425Z,2.00
2019-02-19T02:28:45.937Z,2.00
2019-02-19T02:31:13.442Z,2.00
2019-02-19T02:33:41.003Z,1.90
2019-02-19T02:36:08.512Z,1.90
2019-02-19T02:38:36.027Z,1.90
2019-02-19T02:41:03.597Z,1.80
2019-02-19T02:43:31.105Z,1.80
2019-02-19T02:45:58.630Z,1.90
2019-02-19T02:48:26.122Z,1.80
2019-02-19T02:50:53.665Z,1.70
2019-02-19T02:53:21.169Z,1.50
2019-02-19T02:55:48.650Z,1.60
2019-02-19T02:58:16.170Z,1.60
2019-02-19T03:00:43.672Z,1.70
2019-02-19T03:03:11.172Z,1.60
2019-02-19T03:05:43.850Z,1.60
2019-02-19T03:08:11.333Z,1.50
2019-02-19T03:10:38.855Z,1.50
2019-02-19T03:13:06.406Z,1.50
2019-02-19T03:15:33.890Z,1.40
2019-02-19T03:18:01.364Z,1.30
2019-02-19T03:20:28.918Z,1.30
2019-02-19T03:22:56.460Z,1.50
2019-02-19T03:25:23.973Z,1.40
2019-02-19T03:27:51.457Z,1.20
2019-02-19T03:30:19.012Z,1.40
2019-02-19T03:32:46.511Z,1.10
2019-02-19T03:35:14.011Z,1.20
2019-02-19T03:37:41.537Z,1.10
2019-02-19T03:40:09.031Z,1.40
2019-02-19T03:42:36.591Z,1.40
2019-02-19T03:45:04.949Z,1.10
2019-02-19T03:47:32.453Z,1.10
2019-02-19T03:50:00.017Z,1.10
2019-02-19T03:52:27.522Z,1.10
2019-02-19T03:54:55.042Z,1.00
2019-02-19T03:57:22.549Z,1.10
2019-02-19T03:59:50.049Z,1.10
2019-02-19T04:02:17.627Z,1.00
2019-02-19T04:04:45.139Z,1.10
2019-02-19T04:07:12.665Z,1.00
2019-02-19T04:09:40.307Z,1.30
2019-02-19T04:12:07.819Z,1.20
2019-02-19T04:14:35.392Z,1.00
2019-02-19T04:17:02.922Z,1.00
2019-02-19T04:19:30.443Z,1.00
2019-02-19T04:21:57.942Z,1.00
2019-02-19T04:24:25.487Z,1.00
2019-02-19T04:26:52.980Z,1.00
2019-02-19T04:29:20.511Z,0.90
2019-02-19T04:31:48.048Z,0.80
2019-02-19T04:34:15.537Z,0.80
2019-02-19T04:36:43.041Z,1.00
2019-02-19T04:39:10.587Z,0.80
2019-02-19T04:41:38.073Z,0.80
2019-02-19T04:44:05.593Z,0.70
2019-02-19T04:46:33.119Z,0.70
2019-02-19T04:49:00.641Z,0.70
2019-02-19T04:51:28.134Z,0.70
2019-02-19T04:53:55.685Z,0.70
2019-02-19T04:56:24.082Z,0.70
2019-02-19T04:58:51.617Z,0.60
2019-02-19T05:01:19.147Z,0.60
2019-02-19T05:03:46.655Z,0.60
2019-02-19T05:06:14.138Z,0.80
2019-02-19T05:08:41.677Z,0.50
2019-02-19T05:11:09.178Z,0.60
2019-02-19T05:13:36.681Z,0.60
2019-02-19T05:16:04.248Z,0.80
2019-02-19T05:18:32.871Z,0.60
2019-02-19T05:21:00.421Z,0.60
2019-02-19T05:23:27.937Z,0.50
2019-02-19T05:25:55.457Z,0.60
2019-02-19T05:28:22.979Z,0.50
2019-02-19T05:30:50.464Z,0.60
2019-02-19T05:33:18.075Z,0.50
2019-02-19T05:35:45.564Z,0.50
2019-02-19T05:38:13.112Z,0.70
2019-02-19T05:40:40.679Z,0.50
2019-02-19T05:43:08.165Z,0.50
2019-02-19T05:45:35.729Z,0.50
2019-02-19T05:48:05.227Z,0.50
2019-02-19T05:50:32.603Z,0.50
2019-02-19T05:53:00.101Z,0.60
2019-02-19T05:55:27.902Z,0.50
2019-02-19T05:57:55.446Z,0.50
2019-02-19T06:00:23.021Z,0.50
2019-02-19T06:02:50.502Z,0.50
2019-02-19T06:05:18.049Z,0.70
2019-02-19T06:07:45.521Z,0.50
2019-02-19T06:10:13.048Z,0.70
2019-02-19T06:12:40.533Z,0.60
2019-02-19T06:15:08.680Z,0.70
2019-02-19T06:17:36.171Z,0.60
2019-02-19T06:20:05.965Z,0.90
2019-02-19T06:22:33.458Z,0.80
2019-02-19T06:25:00.965Z,0.90
2019-02-19T06:27:28.829Z,0.90
2019-02-19T06:29:56.349Z,0.90
2019-02-19T06:32:23.822Z,1.00
2019-02-19T06:34:51.358Z,1.00
2019-02-19T06:37:18.938Z,1.00
2019-02-19T06:39:46.503Z,1.00
2019-02-19T06:42:14.003Z,1.00
2019-02-19T06:44:41.489Z,1.10
2019-02-19T06:47:09.123Z,1.10
2019-02-19T06:49:36.632Z,1.20
2019-02-19T06:52:04.138Z,1.40
2019-02-19T06:54:31.665Z,1.60
2019-02-19T06:56:59.182Z,1.70
2019-02-19T06:59:26.715Z,1.80
2019-02-19T07:02:06.222Z,2.00
2019-02-19T07:04:37.678Z,2.40
2019-02-19T07:07:05.180Z,2.60
2019-02-19T07:09:32.698Z,3.00
2019-02-19T07:12:00.202Z,2.90
2019-02-19T07:14:27.729Z,2.70
2019-02-19T07:16:55.246Z,2.50
2019-02-19T07:19:22.733Z,2.40
2019-02-19T07:21:50.283Z,2.30
2019-02-19T07:24:17.774Z,2.30
2019-02-19T07:26:45.278Z,2.30
2019-02-19T07:29:12.872Z,2.30
2019-02-19T07:31:40.391Z,2.40
2019-02-19T07:34:07.938Z,2.50
2019-02-19T07:36:35.437Z,2.60
2019-02-19T07:39:03.344Z,2.70
2019-02-19T07:41:30.906Z,2.80
2019-02-19T07:43:58.542Z,3.00
2019-02-19T07:46:26.070Z,3.20
2019-02-19T07:48:53.608Z,3.30
2019-02-19T07:51:21.094Z,3.70
2019-02-19T07:53:48.597Z,4.30
2019-02-19T07:56:16.105Z,4.90
2019-02-19T07:58:43.609Z,5.10
2019-02-19T08:01:11.104Z,5.50
2019-02-19T08:03:38.654Z,5.80
2019-02-19T08:06:06.136Z,6.00
2019-02-19T08:08:33.704Z,6.30
2019-02-19T08:11:01.174Z,6.50
2019-02-19T08:13:28.831Z,6.60
2019-02-19T08:15:56.361Z,7.10
2019-02-19T08:18:25.187Z,7.40
2019-02-19T08:20:52.966Z,7.80
2019-02-19T08:23:20.457Z,8.20
2019-02-19T08:25:48.007Z,8.60
2019-02-19T08:28:15.498Z,9.10
2019-02-19T08:30:43.007Z,9.40
2019-02-19T08:33:10.561Z,9.60
2019-02-19T08:35:38.044Z,9.90
2019-02-19T08:38:05.557Z,10.10
2019-02-19T08:40:33.113Z,10.30
2019-02-19T08:43:00.604Z,10.30
2019-02-19T08:45:28.084Z,10.00
2019-02-19T08:47:55.608Z,9.40
2019-02-19T08:50:23.186Z,8.80
2019-02-19T08:52:50.693Z,8.40
2019-02-19T08:55:18.193Z,8.10
2019-02-19T08:57:45.722Z,7.90
2019-02-19T09:00:13.211Z,7.90
2019-02-19T09:02:40.722Z,7.90
2019-02-19T09:05:08.263Z,7.90
2019-02-19T09:07:35.741Z,7.90
2019-02-19T09:10:03.591Z,8.00
2019-02-19T09:12:31.127Z,8.00
2019-02-19T09:14:58.613Z,8.20
2019-02-19T09:17:26.136Z,8.20
2019-02-19T09:19:53.665Z,8.30
2019-02-19T09:22:21.162Z,8.50
2019-02-19T09:24:48.668Z,8.60
2019-02-19T09:27:16.259Z,8.70
2019-02-19T09:29:43.758Z,8.90
2019-02-19T09:32:11.264Z,8.90
2019-02-19T09:34:38.809Z,9.00
2019-02-19T09:37:06.329Z,9.10
2019-02-19T09:39:33.842Z,9.20
2019-02-19T09:42:01.375Z,9.30
2019-02-19T09:44:28.900Z,9.30
2019-02-19T09:46:56.433Z,9.40
2019-02-19T09:49:23.968Z,9.40
2019-02-19T09:51:51.454Z,9.50
2019-02-19T09:54:18.965Z,9.60
2019-02-19T09:56:46.504Z,9.70
2019-02-19T09:59:14.028Z,9.80
2019-02-19T10:01:41.540Z,9.90
2019-02-19T10:04:09.081Z,10.00
2019-02-19T10:06:36.589Z,10.20
2019-02-19T10:09:05.393Z,10.30
2019-02-19T10:11:32.942Z,10.40
2019-02-19T10:14:00.432Z,10.60
2019-02-19T10:16:27.949Z,10.80
2019-02-19T10:18:55.494Z,11.00
2019-02-19T10:21:23.050Z,11.10
2019-02-19T10:23:50.608Z,11.20
2019-02-19T10:26:18.234Z,11.40
2019-02-19T10:28:45.780Z,11.50
2019-02-19T10:31:13.786Z,11.60
2019-02-19T10:33:41.284Z,11.70
2019-02-19T10:36:08.792Z,11.90
2019-02-19T10:38:36.308Z,12.00
2019-02-19T10:41:03.872Z,12.10
2019-02-19T10:43:31.542Z,12.30
2019-02-19T10:45:59.066Z,12.30
2019-02-19T10:48:26.574Z,12.40
2019-02-19T10:50:54.148Z,12.50
2019-02-19T10:53:21.688Z,12.60
2019-02-19T10:55:49.198Z,12.60
2019-02-19T10:58:22.633Z,12.70
2019-02-19T11:00:46.122Z,12.70
2019-02-19T11:03:13.661Z,12.70
2019-02-19T11:05:41.189Z,12.80
2019-02-19T11:08:08.723Z,12.90
2019-02-19T11:10:36.247Z,13.00
2019-02-19T11:13:03.807Z,13.00
2019-02-19T11:15:31.468Z,13.00
2019-02-19T11:17:58.996Z,13.00
2019-02-19T11:20:26.566Z,12.90
2019-02-19T11:22:54.114Z,13.00
2019-02-19T11:25:21.668Z,13.10
2019-02-19T11:27:49.355Z,13.10
2019-02-19T11:30:16.830Z,13.10
2019-02-19T11:32:44.442Z,13.10
2019-02-19T11:35:12.018Z,13.20
2019-02-19T11:37:39.542Z,13.20
2019-02-19T11:40:08.540Z,13.20
2019-02-19T11:42:37.186Z,13.20
2019-02-19T11:45:05.627Z,13.20
2019-02-19T11:47:33.287Z,13.30
2019-02-19T11:50:00.805Z,13.20
2019-02-19T11:52:28.377Z,13.30
2019-02-19T11:54:55.904Z,13.30
2019-02-19T11:57:23.411Z,13.40
2019-02-19T11:59:50.946Z,13.40
2019-02-19T12:02:18.480Z,13.50
2019-02-19T12:04:46.020Z,13.50
2019-02-19T12:07:13.609Z,13.40
2019-02-19T12:09:41.134Z,13.50
2019-02-19T12:12:08.644Z,13.50
2019-02-19T12:14:36.220Z,13.60
2019-02-19T12:17:03.712Z,13.60
2019-02-19T12:19:31.237Z,13.50
2019-02-19T12:21:58.815Z,13.60
2019-02-19T12:24:26.322Z,13.60
2019-02-19T12:26:53.834Z,13.70
2019-02-19T12:29:21.389Z,13.70
2019-02-19T12:31:48.974Z,13.70
2019-02-19T12:34:16.468Z,13.70
2019-02-19T12:36:43.998Z,13.70
2019-02-19T12:39:11.542Z,13.70
2019-02-19T12:41:39.096Z,13.80
2019-02-19T12:44:06.614Z,13.80
2019-02-19T12:46:34.140Z,13.80
2019-02-19T12:49:01.647Z,13.80
2019-02-19T12:51:29.164Z,13.90
2019-02-19T12:53:56.767Z,13.90
2019-02-19T12:56:24.341Z,13.90
2019-02-19T12:58:51.886Z,13.90
2019-02-19T13:01:19.392Z,13.90
2019-02-19T13:03:46.961Z,13.90
2019-02-19T13:06:14.483Z,13.90
2019-02-19T13:08:41.988Z,13.70
2019-02-19T13:11:09.534Z,13.70
2019-02-19T13:13:37.034Z,13.80
2019-02-19T13:16:04.568Z,13.80
2019-02-19T13:18:32.102Z,13.80
2019-02-19T13:20:59.617Z,13.80
2019-02-19T13:23:27.130Z,13.80
2019-02-19T13:25:54.698Z,13.80
2019-02-19T13:28:22.365Z,13.80
2019-02-19T13:30:49.872Z,13.80
2019-02-19T13:33:17.475Z,13.80
2019-02-19T13:35:44.976Z,13.80
2019-02-19T13:38:12.470Z,13.80
2019-02-19T13:40:40.070Z,13.70
2019-02-19T13:43:07.579Z,13.70
2019-02-19T13:45:35.155Z,13.60
2019-02-19T13:48:05.954Z,13.60
2019-02-19T13:50:31.951Z,13.60
2019-02-19T13:53:17.528Z,13.60
2019-02-19T13:55:48.328Z,13.60
2019-02-19T13:58:15.838Z,13.60
2019-02-19T14:00:44.864Z,13.60
2019-02-19T14:03:12.345Z,13.50
2019-02-19T14:05:39.831Z,13.50
2019-02-19T14:08:14.329Z,13.50
2019-02-19T14:10:36.674Z,13.40
2019-02-19T14:13:04.247Z,13.40
2019-02-19T14:15:40.775Z,13.30
2019-02-19T14:18:08.852Z,13.30
2019-02-19T14:21:04.477Z,13.20
2019-02-19T14:23:54.046Z,13.10
2019-02-19T14:26:53.268Z,13.10
2019-02-19T14:29:38.447Z,13.00
2019-02-19T14:32:37.745Z,12.90
2019-02-19T14:35:23.449Z,12.90
2019-02-19T14:38:08.981Z,12.80
2019-02-19T14:40:58.167Z,12.70
2019-02-19T14:43:45.211Z,12.80
2019-02-19T14:46:23.528Z,12.70
2019-02-19T14:49:10.858Z,12.60
2019-02-19T14:51:56.718Z,12.50
2019-02-19T14:54:42.442Z,12.40
2019-02-19T14:57:29.204Z,12.30
2019-02-19T15:00:16.202Z,12.30
2019-02-19T15:03:12.282Z,12.20
2019-02-19T15:06:00.030Z,12.10
2019-02-19T15:08:45.584Z,12.10
2019-02-19T15:11:41.654Z,12.00
2019-02-19T15:14:31.684Z,12.00
2019-02-19T15:17:26.081Z,11.90
2019-02-19T15:20:16.110Z,11.80
2019-02-19T15:23:18.293Z,11.80
2019-02-19T15:26:02.387Z,11.70
2019-02-19T15:28:47.914Z,11.60
2019-02-19T15:31:38.195Z,11.40
2019-02-19T15:34:43.730Z,11.30
2019-02-19T15:37:33.708Z,11.30
2019-02-19T15:40:20.696Z,11.20
2019-02-19T15:43:10.824Z,11.20
2019-02-19T15:45:56.678Z,11.10
2019-02-19T15:48:42.794Z,11.10
2019-02-19T15:51:18.247Z,11.00
2019-02-19T15:54:11.321Z,10.90
2019-02-19T15:57:16.721Z,10.80
2019-02-19T15:59:59.360Z,10.70
2019-02-19T16:02:32.669Z,10.70
2019-02-19T16:05:25.645Z,10.60
2019-02-19T16:08:15.729Z,10.60
2019-02-19T16:11:05.494Z,10.50
2019-02-19T16:13:55.617Z,10.40
2019-02-19T16:16:35.509Z,10.30
2019-02-19T16:19:21.128Z,10.20
2019-02-19T16:21:58.142Z,10.10
2019-02-19T16:24:35.888Z,10.10
2019-02-19T16:27:28.730Z,10.10
2019-02-19T16:30:14.804Z,10.10
2019-02-19T16:33:14.913Z,10.10
2019-02-19T16:36:03.802Z,10.00
2019-02-19T16:38:56.216Z,10.00
2019-02-19T16:41:36.033Z,10.00
2019-02-19T16:44:17.647Z,10.00
2019-02-19T16:47:03.321Z,10.00
2019-02-19T16:49:49.201Z,10.00
2019-02-19T16:52:45.254Z,10.00
2019-02-19T16:55:24.826Z,9.90
2019-02-19T16:58:05.129Z,9.90
2019-02-19T17:00:58.110Z,9.80
2019-02-19T17:03:40.473Z,9.80
2019-02-19T17:06:27.469Z,9.80
2019-02-19T17:09:00.514Z,9.80
2019-02-19T17:11:50.641Z,9.80
2019-02-19T17:14:35.246Z,9.80
2019-02-19T17:17:23.066Z,9.80
2019-02-19T17:20:21.027Z,9.70
2019-02-19T17:22:44.862Z,9.70
2019-02-19T17:25:30.638Z,9.70
2019-02-19T17:28:14.925Z,9.70
2019-02-19T17:31:10.842Z,9.70
2019-02-19T17:34:03.454Z,9.60
2019-02-19T17:36:50.490Z,9.60
2019-02-19T17:39:27.157Z,9.60
2019-02-19T17:42:14.187Z,9.50
2019-02-19T17:44:51.582Z,9.50
2019-02-19T17:47:38.637Z,9.50
2019-02-19T17:50:14.655Z,9.50
2019-02-19T17:53:19.932Z,9.60
2019-02-19T17:56:06.944Z,9.60
2019-02-19T17:58:50.383Z,9.70
2019-02-19T18:01:36.063Z,9.60
2019-02-19T18:04:22.122Z,9.60
2019-02-19T18:07:18.470Z,9.70
2019-02-19T18:10:00.984Z,9.70
2019-02-19T18:12:42.637Z,9.70
2019-02-19T18:15:28.519Z,9.70
2019-02-19T18:18:15.508Z,9.70
2019-02-19T18:20:47.651Z,9.70
2019-02-19T18:23:12.371Z,9.70
2019-02-19T18:25:39.929Z,9.70
2019-02-19T18:28:07.442Z,9.70
2019-02-19T18:30:34.982Z,9.70
2019-02-19T18:33:02.514Z,9.70
2019-02-19T18:35:30.079Z,9.80
2019-02-19T18:37:57.579Z,9.80
2019-02-19T18:40:25.149Z,9.80
2019-02-19T18:42:52.791Z,9.80
2019-02-19T18:45:21.215Z,9.80
2019-02-19T18:47:48.710Z,9.70
2019-02-19T18:50:16.225Z,9.70
2019-02-19T18:52:43.733Z,9.70
2019-02-19T18:55:11.241Z,9.60
2019-02-19T18:57:38.931Z,9.60
2019-02-19T19:00:07.959Z,9.50
2019-02-19T19:02:35.477Z,9.50
2019-02-19T19:05:03.085Z,9.40
2019-02-19T19:07:30.625Z,9.40
2019-02-19T19:09:59.601Z,9.40
2019-02-19T19:12:27.134Z,9.40
2019-02-19T19:14:54.694Z,9.30
2019-02-19T19:17:24.061Z,9.40
2019-02-19T19:19:51.590Z,9.40
2019-02-19T19:22:19.085Z,9.40
2019-02-19T19:24:46.659Z,9.30
2019-02-19T19:27:14.232Z,9.30
2019-02-19T19:29:41.778Z,9.30
2019-02-19T19:32:09.303Z,9.30
2019-02-19T19:34:36.889Z,9.30
2019-02-19T19:37:04.451Z,9.20
2019-02-19T19:39:32.057Z,9.20
2019-02-19T19:41:59.615Z,9.10
2019-02-19T19:44:27.150Z,9.00
2019-02-19T19:46:54.853Z,8.90
2019-02-19T19:49:22.369Z,8.90
2019-02-19T19:51:49.909Z,8.90
2019-02-19T19:54:17.502Z,8.80
2019-02-19T19:56:45.026Z,8.80
2019-02-19T19:59:12.561Z,8.80
2019-02-19T20:01:40.097Z,8.70
2019-02-19T20:04:07.635Z,8.70
2019-02-19T20:06:35.202Z,8.70
2019-02-19T20:09:04.261Z,8.70
2019-02-19T20:11:31.853Z,8.70
2019-02-19T20:13:59.395Z,8.70
2019-02-19T20:16:26.951Z,8.60
2019-02-19T20:18:54.451Z,8.60
2019-02-19T20:21:26.794Z,8.60
2019-02-19T20:23:51.311Z,8.60
2019-02-19T20:26:18.944Z,8.50
2019-02-19T20:28:46.603Z,8.60
2019-02-19T20:31:14.098Z,8.50
2019-02-19T20:33:41.634Z,8.60
2019-02-19T20:36:09.167Z,8.60
2019-02-19T20:38:36.683Z,8.60
2019-02-19T20:41:04.330Z,8.60
2019-02-19T20:43:31.869Z,8.60
2019-02-19T20:45:59.472Z,8.60
2019-02-19T20:48:27.042Z,8.50
2019-02-19T20:50:54.541Z,8.50
2019-02-19T20:53:22.043Z,8.50
2019-02-19T20:55:49.831Z,8.50
2019-02-19T20:58:18.642Z,8.50
2019-02-19T21:00:46.213Z,8.50
2019-02-19T21:03:13.827Z,8.50
2019-02-19T21:05:41.358Z,8.40
2019-02-19T21:08:08.989Z,8.40
2019-02-19T21:10:37.897Z,8.40
2019-02-19T21:13:05.401Z,8.40
2019-02-19T21:15:33.001Z,8.30
2019-02-19T21:18:00.508Z,8.30
2019-02-19T21:20:28.593Z,8.30
2019-02-19T21:22:56.117Z,8.30
2019-02-19T21:25:30.841Z,8.30
2019-02-19T21:27:53.007Z,8.20
2019-02-19T21:30:20.485Z,8.10
2019-02-19T21:32:47.980Z,8.00
2019-02-19T21:35:15.521Z,7.90
2019-02-19T21:37:43.076Z,7.80
2019-02-19T21:40:10.618Z,7.70
2019-02-19T21:42:38.137Z,7.60
2019-02-19T21:45:07.915Z,7.60
2019-02-19T21:47:35.601Z,7.60
2019-02-19T21:50:03.727Z,7.50
2019-02-19T21:52:31.207Z,7.40
2019-02-19T21:54:58.706Z,7.30
2019-02-19T21:57:26.297Z,7.20
2019-02-19T21:59:53.811Z,7.10
2019-02-19T22:02:21.331Z,7.10
2019-02-19T22:04:48.897Z,7.10
2019-02-19T22:07:16.404Z,7.00
2019-02-19T22:09:43.893Z,7.00
2019-02-19T22:12:11.460Z,6.90
2019-02-19T22:14:39.001Z,6.90
2019-02-19T22:17:06.506Z,6.80
2019-02-19T22:19:34.033Z,6.80
2019-02-19T22:22:06.077Z,6.80
2019-02-19T22:24:37.588Z,6.70
2019-02-19T22:27:06.653Z,6.70
2019-02-19T22:29:34.183Z,6.70
2019-02-19T22:32:02.069Z,6.80
2019-02-19T22:34:29.565Z,6.80
2019-02-19T22:36:57.057Z,6.80
2019-02-19T22:39:24.612Z,6.90
2019-02-19T22:41:52.110Z,7.10
2019-02-19T22:44:19.768Z,7.10
2019-02-19T22:46:47.321Z,7.20
2019-02-19T22:49:14.841Z,7.20
2019-02-19T22:51:42.337Z,7.10
2019-02-19T22:54:15.233Z,7.00
2019-02-19T22:56:44.384Z,7.00
2019-02-19T22:59:11.877Z,7.00
2019-02-19T23:01:48.550Z,7.00
2019-02-19T23:04:16.052Z,7.10
2019-02-19T23:06:43.634Z,7.10
2019-02-19T23:09:11.257Z,7.00
2019-02-19T23:11:38.754Z,7.10
2019-02-19T23:14:06.295Z,7.10
2019-02-19T23:16:33.791Z,7.20
2019-02-19T23:19:01.290Z,7.20
2019-02-19T23:21:28.833Z,7.20
2019-02-19T23:23:56.337Z,7.30
2019-02-19T23:26:23.831Z,7.30
2019-02-19T23:28:51.346Z,7.30
2019-02-19T23:31:18.853Z,7.30
2019-02-19T23:33:46.424Z,7.30
2019-02-19T23:36:21.402Z,7.30
2019-02-19T23:38:48.924Z,7.20
2019-02-19T23:41:16.428Z,7.20
2019-02-19T23:43:43.995Z,7.20
2019-02-19T23:46:11.571Z,7.30
2019-02-19T23:48:39.146Z,7.30
2019-02-19T23:51:06.662Z,7.30
2019-02-19T23:53:34.189Z,7.30
2019-02-19T23:56:01.767Z,7.30
2019-02-19T23:58:29.270Z,7.20
